Time;durP1;ratioP1;P1;durP2;ratioP2;P2;SDS_P1;SDS_P2;PMS_P1;PMS_P2;Temp;Humidity;BMP_temperature;BMP_pressure;BME280_temperature;BME280_humidity;BME280_pressure;Samples;Min_cycle;Max_cycle;Signal;HPM_P1;HPM_P2
2021/03/13 00:00:39;;;;;;;35.67;20.47;;;;;;;1.77;74.49;99188.70;124560;1105;102939;-77
2021/03/13 00:03:10;;;;;;;32.70;18.40;;;;;;;1.74;74.47;99185.33;124534;1105;104165;-77
2021/03/13 00:05:41;;;;;;;33.37;19.50;;;;;;;1.69;74.38;99171.70;124508;1105;104380;-77
2021/03/13 00:08:10;;;;;;;31.57;19.77;;;;;;;1.64;74.82;99184.62;124585;1105;104255;-77
2021/03/13 00:10:38;;;;;;;32.27;19.70;;;;;;;1.62;74.75;99185.52;124647;1105;104152;-77
2021/03/13 00:13:06;;;;;;;33.27;19.67;;;;;;;1.57;75.15;99180.41;124614;1109;104206;-77
2021/03/13 00:15:34;;;;;;;31.97;19.03;;;;;;;1.53;75.04;99181.32;124572;1105;104200;-77
2021/03/13 00:18:03;;;;;;;34.53;20.43;;;;;;;1.49;75.49;99179.67;124511;1109;104300;-78
2021/03/13 00:20:32;;;;;;;34.87;20.83;;;;;;;1.46;75.17;99177.99;124772;1105;104644;-78
2021/03/13 00:23:00;;;;;;;30.00;18.67;;;;;;;1.46;75.23;99177.14;124646;1105;104127;-77
2021/03/13 00:25:29;;;;;;;31.03;19.50;;;;;;;1.45;75.13;99178.02;124533;1105;104262;-77
2021/03/13 00:27:57;;;;;;;36.60;20.13;;;;;;;1.43;75.48;99166.88;124739;1105;104213;-77
2021/03/13 00:30:34;;;;;;;34.47;19.70;;;;;;;1.43;75.14;99169.45;124696;1106;104101;-78
2021/03/13 00:33:12;;;;;;;;;;;;;;;1.42;75.21;99170.32;124626;1105;104063;-78
2021/03/13 00:35:41;;;;;;;34.30;19.87;;;;;;;1.36;74.92;99162.70;124780;1105;104223;-77
2021/03/13 00:38:09;;;;;;;34.63;19.87;;;;;;;1.36;75.28;99160.13;124781;1105;104162;-77
2021/03/13 00:40:39;;;;;;;37.60;20.73;;;;;;;1.34;75.17;99159.30;124586;1106;104220;-78
2021/03/13 00:43:09;;;;;;;36.90;20.57;;;;;;;1.30;75.62;99157.64;124501;1106;105973;-77
2021/03/13 00:45:37;;;;;;;38.23;20.63;;;;;;;1.28;75.39;99149.11;124793;1105;104159;-77
2021/03/13 00:48:06;;;;;;;34.57;19.50;;;;;;;1.24;75.55;99157.70;124558;1106;104175;-76
2021/03/13 00:50:36;;;;;;;33.60;18.97;;;;;;;1.20;75.49;99146.62;124568;1109;104158;-76
2021/03/13 00:53:04;;;;;;;34.80;20.90;;;;;;;1.16;75.55;99139.83;124874;1105;104159;-76
2021/03/13 00:55:33;;;;;;;34.17;21.07;;;;;;;1.12;75.32;99131.31;124613;1105;104227;-76
2021/03/13 00:58:03;;;;;;;38.10;20.10;;;;;;;1.09;75.72;99133.92;124636;1109;104142;-77
2021/03/13 01:00:45;;;;;;;34.53;21.17;;;;;;;1.05;75.62;99132.23;124593;1106;104112;-77
2021/03/13 01:03:14;;;;;;;31.97;19.63;;;;;;;1.02;75.45;99126.29;124709;1106;102831;-77
2021/03/13 01:05:41;;;;;;;35.67;20.13;;;;;;;0.99;75.74;99129.75;124695;1105;104245;-77
2021/03/13 01:08:09;;;;;;;34.70;19.70;;;;;;;0.95;76.26;99129.81;124533;1106;105240;-77
2021/03/13 01:10:49;;;;;;;35.65;20.20;;;;;;;0.89;76.22;99135.84;124645;1105;104163;-77
2021/03/13 01:13:22;;;;;;;34.37;20.10;;;;;;;0.85;76.30;99134.18;124533;1105;104290;-77
2021/03/13 01:15:50;;;;;;;35.53;21.00;;;;;;;0.80;76.51;99135.95;124654;1105;104131;-77
2021/03/13 01:18:19;;;;;;;36.30;21.33;;;;;;;0.74;76.90;99136.03;124571;1105;104255;-78
2021/03/13 01:20:49;;;;;;;38.67;21.63;;;;;;;0.69;77.17;99136.05;124598;1106;104197;-76
2021/03/13 01:23:16;;;;;;;37.00;20.47;;;;;;;0.65;77.04;99133.54;124620;1105;104754;-78
2021/03/13 01:25:44;;;;;;;36.53;20.37;;;;;;;0.60;77.43;99133.59;124819;1105;104072;-77
2021/03/13 01:28:12;;;;;;;35.53;20.20;;;;;;;0.57;76.82;99123.36;124561;1105;104156;-76
2021/03/13 01:30:53;;;;;;;35.93;20.73;;;;;;;0.51;76.97;99119.13;124549;1106;104262;-77
2021/03/13 01:33:20;;;;;;;33.63;20.23;;;;;;;0.49;77.02;99113.16;124605;1105;104638;-78
2021/03/13 01:35:47;;;;;;;31.50;18.90;;;;;;;0.46;77.51;99110.63;124550;1105;104236;-78
2021/03/13 01:38:15;;;;;;;30.50;18.63;;;;;;;0.44;77.91;99101.25;124517;1109;104166;-78
2021/03/13 01:40:42;;;;;;;34.60;19.80;;;;;;;0.42;78.20;99106.40;124549;1105;105248;-79
2021/03/13 01:43:10;;;;;;;30.97;19.13;;;;;;;0.39;77.38;99101.30;124584;1105;104128;-78
2021/03/13 01:45:37;;;;;;;30.30;18.63;;;;;;;0.39;77.51;99103.02;124492;1109;104344;-78
2021/03/13 01:48:05;;;;;;;35.30;20.00;;;;;;;0.38;78.04;99091.91;124605;1105;102637;-78
2021/03/13 01:50:33;;;;;;;32.67;18.77;;;;;;;0.39;77.83;99091.05;124553;1106;104131;-78
2021/03/13 01:53:01;;;;;;;34.03;18.30;;;;;;;0.39;77.50;99088.48;124566;1106;104112;-78
2021/03/13 01:55:30;;;;;;;30.40;18.27;;;;;;;0.39;77.58;99088.48;124649;1108;104650;-77
2021/03/13 01:58:01;;;;;;;27.63;17.87;;;;;;;0.39;77.92;99088.48;124804;1105;104192;-78
2021/03/13 02:00:31;;;;;;;33.33;18.33;;;;;;;0.38;77.65;99084.22;124577;1105;104582;-78
2021/03/13 02:03:00;;;;;;;32.13;17.10;;;;;;;0.39;77.66;99082.50;124602;1105;104169;-78
2021/03/13 02:05:36;;;;;;;33.33;18.67;;;;;;;0.39;77.48;99078.22;124563;1106;104221;-77
2021/03/13 02:08:31;;;;;;;31.60;18.03;;;;;;;0.39;77.35;99082.50;124569;1106;101941;-77
2021/03/13 02:11:27;;;;;;;28.87;17.23;;;;;;;0.40;77.74;99079.92;124498;1105;104107;-77
2021/03/13 02:14:07;;;;;;;31.20;17.00;;;;;;;0.42;77.88;99077.34;124539;1109;104216;-77
2021/03/13 02:16:54;;;;;;;27.63;15.77;;;;;;;0.43;77.68;99074.75;124643;1106;104117;-78
2021/03/13 02:20:00;;;;;;;29.47;16.40;;;;;;;0.45;77.30;99078.15;124610;1106;104203;-77
2021/03/13 02:22:35;;;;;;;28.17;15.90;;;;;;;0.47;77.52;99076.41;124801;1106;104146;-77
2021/03/13 02:25:35;;;;;;;27.97;15.17;;;;;;;0.49;77.06;99069.55;124589;1105;104127;-76
2021/03/13 02:28:12;;;;;;;28.17;14.77;;;;;;;0.52;76.98;99078.92;124609;1105;104290;-75
2021/03/13 02:30:41;;;;;;;26.93;15.47;;;;;;;0.53;77.08;99071.21;124748;1105;104608;-76
2021/03/13 02:33:19;;;;;;;29.13;15.87;;;;;;;0.56;76.83;99065.22;124669;1105;104131;-77
2021/03/13 02:36:05;;;;;;;33.70;16.37;;;;;;;0.57;76.70;99078.03;124771;1103;104342;-76
2021/03/13 02:38:44;;;;;;;30.40;15.70;;;;;;;0.59;77.01;99073.73;124551;1109;104140;-76
2021/03/13 02:41:18;;;;;;;27.10;15.93;;;;;;;0.60;76.48;99064.31;124531;1108;104270;-76
2021/03/13 02:43:51;;;;;;;28.70;15.08;;;;;;;0.62;76.46;99064.30;124535;1105;104162;-76
2021/03/13 02:46:23;;;;;;;29.30;15.73;;;;;;;0.60;76.46;99062.59;124517;1105;104162;-76
2021/03/13 02:48:53;;;;;;;32.20;16.87;;;;;;;0.60;75.99;99051.48;124561;1105;104226;-76
2021/03/13 02:51:24;;;;;;;30.73;16.40;;;;;;;0.58;76.29;99048.09;124600;1105;104310;-76
2021/03/13 02:53:56;;;;;;;29.07;15.53;;;;;;;0.57;75.83;99049.81;124560;1109;104232;-77
2021/03/13 02:56:25;;;;;;;33.47;16.97;;;;;;;0.56;76.23;99050.68;124681;1105;104316;-77
2021/03/13 02:58:56;;;;;;;32.53;17.17;;;;;;;0.56;76.47;99047.27;124591;1105;104168;-76
2021/03/13 03:01:28;;;;;;;29.03;16.80;;;;;;;0.55;76.43;99048.13;124545;1106;104193;-77
2021/03/13 03:03:59;;;;;;;31.97;17.13;;;;;;;0.55;76.25;99043.85;124549;1105;104242;-77
2021/03/13 03:06:33;;;;;;;29.70;16.17;;;;;;;0.58;76.08;99040.40;124683;1105;104229;-77
2021/03/13 03:09:07;;;;;;;28.50;16.53;;;;;;;0.59;76.22;99050.64;124560;1105;104200;-76
2021/03/13 03:11:44;;;;;;;31.93;15.90;;;;;;;0.60;75.59;99044.64;124624;1105;104142;-77
2021/03/13 03:14:15;;;;;;;27.53;16.27;;;;;;;0.62;75.92;99036.92;124517;1106;104228;-77
2021/03/13 03:16:46;;;;;;;28.00;14.73;;;;;;;0.64;75.94;99034.34;124536;1106;104687;-78
2021/03/13 03:19:17;;;;;;;28.73;15.63;;;;;;;0.66;75.92;99035.16;124546;1106;104133;-77
2021/03/13 03:21:51;;;;;;;;;;;;;;;0.66;75.65;99025.75;124595;1105;104200;-77
2021/03/13 03:24:19;;;;;;;31.47;15.40;;;;;;;0.66;75.78;99030.03;124590;1105;104428;-77
2021/03/13 03:26:46;;;;;;;34.87;16.37;;;;;;;0.64;75.56;99024.92;124539;1106;104287;-77
2021/03/13 03:29:14;;;;;;;33.60;15.80;;;;;;;0.64;75.64;99017.22;124545;1105;104338;-77
2021/03/13 03:31:42;;;;;;;26.07;14.47;;;;;;;0.63;75.29;99014.68;124709;1105;104599;-77
2021/03/13 03:34:10;;;;;;;29.67;14.97;;;;;;;0.63;75.59;99006.98;124558;1105;104162;-77
2021/03/13 03:36:38;;;;;;;26.53;14.57;;;;;;;0.63;75.50;99000.13;124605;1105;103662;-77
2021/03/13 03:39:06;;;;;;;31.67;15.13;;;;;;;0.63;75.35;98999.28;124562;1109;104150;-77
2021/03/13 03:41:40;;;;;;;30.23;14.63;;;;;;;0.64;75.26;99006.11;124537;1109;104130;-78
2021/03/13 03:44:27;;;;;;;26.23;14.40;;;;;;;0.66;75.20;99010.36;124548;1106;103976;-77
2021/03/13 03:47:05;;;;;;;26.25;14.00;;;;;;;0.66;75.08;99010.36;124608;1105;104226;-77
2021/03/13 03:49:34;;;;;;;29.23;14.30;;;;;;;0.66;75.36;99000.09;124604;1105;104105;-77
2021/03/13 03:52:15;;;;;;;25.30;13.90;;;;;;;0.69;75.08;99004.33;124736;1105;104747;-77
2021/03/13 03:54:42;;;;;;;22.97;13.13;;;;;;;0.70;74.97;98998.33;124566;1106;104146;-77
2021/03/13 03:57:10;;;;;;;29.37;13.83;;;;;;;0.72;75.18;98994.02;124767;1105;103980;-77
2021/03/13 03:59:41;;;;;;;30.63;14.20;;;;;;;0.73;75.18;99003.45;124537;1105;104964;-77
2021/03/13 04:02:08;;;;;;;28.77;14.33;;;;;;;0.76;75.03;99000.84;124587;1109;104101;-77
2021/03/13 04:04:37;;;;;;;27.53;14.40;;;;;;;0.76;75.04;98983.73;124556;1105;104149;-76
2021/03/13 04:07:05;;;;;;;25.50;13.57;;;;;;;0.79;74.77;98990.53;124553;1105;104305;-76
2021/03/13 04:09:32;;;;;;;27.07;14.07;;;;;;;0.81;74.66;98970.83;124579;1105;104233;-77
2021/03/13 04:12:04;;;;;;;29.33;14.33;;;;;;;0.82;74.72;98970.80;124569;1105;104160;-77
2021/03/13 04:14:32;;;;;;;24.87;12.90;;;;;;;0.85;74.59;98975.04;124563;1105;104108;-77
2021/03/13 04:17:00;;;;;;;27.87;14.40;;;;;;;0.86;74.73;98961.33;124588;1105;104120;-77
2021/03/13 04:19:28;;;;;;;31.07;14.47;;;;;;;0.88;74.41;98959.59;124454;1109;104085;-77
2021/03/13 04:21:55;;;;;;;25.90;14.27;;;;;;;0.88;74.19;98957.87;124563;1106;104181;-77
2021/03/13 04:24:24;;;;;;;28.37;14.10;;;;;;;0.89;74.51;98948.45;124551;1109;104179;-77
2021/03/13 04:26:52;;;;;;;29.40;14.70;;;;;;;0.91;74.53;98949.31;124674;1106;102980;-77
2021/03/13 04:29:19;;;;;;;30.83;14.70;;;;;;;0.92;74.33;98945.02;124568;1105;104224;-77
2021/03/13 04:31:48;;;;;;;28.13;14.80;;;;;;;0.96;74.00;98937.25;124504;1105;104572;-76
2021/03/13 04:34:16;;;;;;;31.07;14.53;;;;;;;0.97;74.05;98923.54;124852;1106;104213;-77
2021/03/13 04:36:44;;;;;;;29.83;16.17;;;;;;;0.99;74.20;98926.08;124662;1105;104101;-77
2021/03/13 04:39:12;;;;;;;30.47;15.03;;;;;;;1.02;73.94;98932.02;124570;1105;104165;-77
2021/03/13 04:41:39;;;;;;;30.77;15.57;;;;;;;1.03;73.65;98923.44;124776;1105;104227;-77
2021/03/13 04:44:07;;;;;;;30.73;15.93;;;;;;;1.05;73.66;98921.69;124576;1105;104229;-77
2021/03/13 04:46:36;;;;;;;35.73;17.83;;;;;;;1.08;73.94;98921.67;124561;1105;104281;-77
2021/03/13 04:49:07;;;;;;;34.13;16.27;;;;;;;1.10;73.53;98937.91;124583;1105;104542;-77
2021/03/13 04:51:35;;;;;;;36.27;16.73;;;;;;;1.11;73.62;98926.76;124596;1105;104146;-77
2021/03/13 04:54:02;;;;;;;37.60;17.50;;;;;;;1.14;73.43;98934.41;124560;1106;104307;-77
2021/03/13 04:56:30;;;;;;;33.07;17.03;;;;;;;1.18;73.32;98927.50;124563;1105;104081;-77
2021/03/13 04:58:57;;;;;;;33.80;16.13;;;;;;;1.18;73.54;98925.78;124695;1106;103980;-77
2021/03/13 05:01:25;;;;;;;31.40;17.53;;;;;;;1.17;73.50;98916.38;124551;1105;104216;-77
2021/03/13 05:03:52;;;;;;;33.35;17.30;;;;;;;1.17;73.40;98910.40;124580;1106;104204;-77
2021/03/13 05:06:19;;;;;;;35.93;17.00;;;;;;;1.17;73.29;98915.53;124608;1105;104344;-77
2021/03/13 05:08:46;;;;;;;31.00;16.67;;;;;;;1.17;73.13;98903.54;124772;1105;104185;-77
2021/03/13 05:11:13;;;;;;;35.30;17.87;;;;;;;1.19;73.13;98904.36;124516;1105;104217;-77
2021/03/13 05:13:40;;;;;;;34.10;17.77;;;;;;;1.20;73.08;98893.22;124611;1105;104158;-76
2021/03/13 05:16:07;;;;;;;33.13;18.00;;;;;;;1.21;72.92;98902.61;124787;1105;104200;-77
2021/03/13 05:18:34;;;;;;;37.13;17.37;;;;;;;1.23;73.05;98902.59;124517;1105;104261;-76
2021/03/13 05:21:02;;;;;;;36.97;17.27;;;;;;;1.25;72.95;98895.70;124649;1105;104137;-77
2021/03/13 05:23:29;;;;;;;33.23;18.20;;;;;;;1.29;72.64;98904.23;124539;1106;104207;-76
2021/03/13 05:25:56;;;;;;;35.13;18.47;;;;;;;1.32;72.74;98906.74;124594;1105;104210;-77
2021/03/13 05:28:24;;;;;;;39.97;18.73;;;;;;;1.35;72.68;98898.98;124608;1106;104642;-76
2021/03/13 05:30:51;;;;;;;39.93;18.30;;;;;;;1.39;72.76;98880.07;124542;1105;104114;-77
2021/03/13 05:33:18;;;;;;;36.57;17.90;;;;;;;1.45;72.63;98895.40;124608;1105;104155;-77
2021/03/13 05:35:45;;;;;;;35.30;17.87;;;;;;;1.50;72.24;98889.30;124528;1105;104146;-76
2021/03/13 05:38:12;;;;;;;37.25;17.85;;;;;;;1.57;72.29;98884.89;124614;1106;104210;-77
2021/03/13 05:40:40;;;;;;;34.80;17.40;;;;;;;1.62;72.48;98893.39;124515;1105;104274;-76
2021/03/13 05:43:10;;;;;;;37.67;18.12;;;;;;;1.68;72.09;98893.27;124570;1106;104120;-76
2021/03/13 05:45:40;;;;;;;32.70;17.60;;;;;;;1.76;71.97;98905.97;124570;1105;104189;-77
2021/03/13 05:48:08;;;;;;;31.77;17.13;;;;;;;1.80;71.65;98916.19;124582;1105;101597;-77
2021/03/13 05:50:36;;;;;;;37.57;18.67;;;;;;;1.84;71.67;98898.98;124566;1106;104270;-77
2021/03/13 05:53:05;;;;;;;36.00;16.83;;;;;;;1.88;71.55;98899.77;124748;1105;104105;-77
2021/03/13 05:55:32;;;;;;;34.17;16.93;;;;;;;1.90;71.34;98898.86;124602;1105;104229;-77
2021/03/13 05:58:01;;;;;;;36.17;17.60;;;;;;;1.93;71.23;98908.23;124577;1105;104143;-77
2021/03/13 06:00:28;;;;;;;36.30;16.60;;;;;;;1.96;71.37;98908.17;124565;1106;104144;-77
2021/03/13 06:02:55;;;;;;;36.13;17.83;;;;;;;2.00;71.11;98904.69;124575;1106;103524;-74
2021/03/13 06:05:23;;;;;;;34.77;15.63;;;;;;;2.04;71.20;98912.30;124555;1109;104166;-77
2021/03/13 06:07:54;;;;;;;33.50;17.50;;;;;;;2.09;70.91;98914.78;124533;1105;104187;-77
2021/03/13 06:10:22;;;;;;;30.83;15.17;;;;;;;2.12;70.88;98912.99;124609;1105;104198;-77
2021/03/13 06:12:50;;;;;;;36.73;15.90;;;;;;;2.19;70.61;98915.47;124716;1105;102645;-77
2021/03/13 06:15:21;;;;;;;28.80;14.63;;;;;;;2.26;70.54;98924.74;124575;1105;104162;-77
2021/03/13 06:17:59;;;;;;;30.47;15.77;;;;;;;2.31;70.41;98923.77;124512;1109;104223;-77
2021/03/13 06:20:33;;;;;;;33.93;15.63;;;;;;;2.37;70.23;98933.95;124511;1105;104171;-78
2021/03/13 06:23:19;;;;;;;28.33;14.33;;;;;;;2.44;69.77;98934.67;124538;1105;104053;-78
2021/03/13 06:25:48;;;;;;;31.77;13.83;;;;;;;2.51;70.06;98932.80;124567;1109;104153;-78
2021/03/13 06:28:20;;;;;;;27.20;13.73;;;;;;;2.58;70.01;98939.54;124588;1106;104334;-79
2021/03/13 06:30:49;;;;;;;26.47;12.70;;;;;;;2.67;69.62;98931.61;124539;1106;103918;-78
2021/03/13 06:33:32;;;;;;;29.13;12.93;;;;;;;2.77;69.51;98934.85;124568;1109;104261;-78
2021/03/13 06:36:08;;;;;;;28.40;13.73;;;;;;;2.89;69.54;98950.05;124574;1105;104193;-79
2021/03/13 06:38:37;;;;;;;27.50;12.93;;;;;;;2.99;69.23;98952.36;124534;1105;104144;-78
2021/03/13 06:41:13;;;;;;;28.00;13.03;;;;;;;3.09;68.90;98959.91;124529;1106;104236;-79
2021/03/13 06:43:40;;;;;;;27.30;12.23;;;;;;;3.17;68.87;98973.45;124603;1105;104104;-78
2021/03/13 06:46:16;;;;;;;28.60;12.50;;;;;;;3.24;69.12;98968.14;124518;1105;104323;-79
2021/03/13 06:48:46;;;;;;;23.30;11.97;;;;;;;3.25;69.29;98981.86;124530;1105;104204;-79
2021/03/13 06:51:14;;;;;;;19.55;10.90;;;;;;;3.19;69.90;98976.83;124799;1105;104107;-79
2021/03/13 06:53:42;;;;;;;24.77;11.57;;;;;;;3.13;70.57;98992.44;124572;1105;104203;-79
2021/03/13 06:56:13;;;;;;;22.40;10.97;;;;;;;3.06;70.91;98989.16;124631;1109;104656;-79
2021/03/13 06:58:41;;;;;;;21.23;10.90;;;;;;;2.98;71.65;98991.88;124545;1105;104143;-79
2021/03/13 07:01:09;;;;;;;21.50;11.03;;;;;;;2.92;71.80;98991.17;124564;1106;104082;-79
2021/03/13 07:03:52;;;;;;;21.57;11.37;;;;;;;2.87;72.01;99003.28;124600;1105;104216;-79
2021/03/13 07:06:20;;;;;;;20.87;11.43;;;;;;;2.81;72.11;98999.11;124538;1109;104191;-79
2021/03/13 07:08:50;;;;;;;22.30;11.67;;;;;;;2.76;72.36;99003.52;124600;1106;104220;-79
2021/03/13 07:11:21;;;;;;;21.95;11.05;;;;;;;2.67;73.26;99012.26;124563;1106;104175;-79
2021/03/13 07:13:56;;;;;;;18.60;10.63;;;;;;;2.62;73.27;99003.78;124527;1105;104210;-79
2021/03/13 07:16:24;;;;;;;21.67;12.00;;;;;;;2.53;73.59;99009.13;124602;1105;104143;-79
2021/03/13 07:19:12;;;;;;;24.03;12.30;;;;;;;2.47;74.04;99009.23;124534;1105;104152;-79
2021/03/13 07:21:43;;;;;;;25.27;12.20;;;;;;;2.35;74.11;99000.04;124506;1106;104277;-80
2021/03/13 07:24:13;;;;;;;23.12;12.40;;;;;;;2.27;74.39;99012.18;124543;1105;104201;-79
2021/03/13 07:26:48;;;;;;;26.13;12.63;;;;;;;2.14;74.64;99005.55;124601;1105;104169;-79
2021/03/13 07:29:19;;;;;;;22.87;11.00;;;;;;;2.01;74.75;99004.09;124574;1105;104117;-78
2021/03/13 07:31:52;;;;;;;19.57;10.73;;;;;;;1.91;75.61;99008.53;124528;1106;104251;-79
2021/03/13 07:34:24;;;;;;;23.20;12.70;;;;;;;1.80;75.68;99001.02;124532;1106;104486;-78
2021/03/13 07:36:53;;;;;;;24.27;13.77;;;;;;;1.72;76.45;98996.86;124564;1105;104623;-78
2021/03/13 07:39:34;;;;;;;18.73;11.13;;;;;;;1.69;77.13;98994.34;124567;1105;104146;-79
2021/03/13 07:42:04;;;;;;;23.63;12.30;;;;;;;1.61;77.86;98984.17;124576;1105;104130;-78
2021/03/13 07:44:32;;;;;;;20.00;11.77;;;;;;;1.58;78.37;98973.10;124614;1105;104271;-78
2021/03/13 07:47:01;;;;;;;23.23;12.57;;;;;;;1.54;79.19;98979.17;124506;1105;104280;-78
2021/03/13 07:49:32;;;;;;;21.00;12.10;;;;;;;1.53;79.14;98980.89;124541;1105;104416;-78
2021/03/13 07:52:02;;;;;;;20.50;11.87;;;;;;;1.54;79.03;98977.45;124600;1106;104163;-78
2021/03/13 07:54:31;;;;;;;18.57;11.37;;;;;;;1.59;79.84;98979.94;124572;1105;104325;-78
2021/03/13 07:57:04;;;;;;;21.80;12.17;;;;;;;1.62;79.90;98979.91;124753;1105;104233;-77
2021/03/13 07:59:42;;;;;;;20.43;11.17;;;;;;;1.66;79.60;98976.41;124525;1106;104249;-79
2021/03/13 08:02:48;;;;;;;20.77;12.60;;;;;;;1.70;80.24;98978.05;124711;1105;104130;-78
2021/03/13 08:05:17;;;;;;;21.13;12.17;;;;;;;1.72;80.51;98987.43;124713;1106;104149;-79
2021/03/13 08:08:04;;;;;;;19.60;12.20;;;;;;;1.74;79.96;98998.53;124558;1109;104201;-77
2021/03/13 08:10:51;;;;;;;17.47;10.77;;;;;;;1.76;80.10;99014.77;124576;1109;103006;-78
2021/03/13 08:13:28;;;;;;;22.90;11.53;;;;;;;1.76;80.61;99012.20;124433;1106;104110;-78
2021/03/13 08:16:07;;;;;;;20.40;11.53;;;;;;;1.78;80.12;99002.73;124785;1105;104146;-79
2021/03/13 08:18:44;;;;;;;16.90;10.80;;;;;;;1.83;80.12;98999.27;124774;1105;104136;-77
2021/03/13 08:21:18;;;;;;;15.93;9.87;;;;;;;1.87;80.44;98993.20;124521;1106;102681;-78
2021/03/13 08:24:02;;;;;;;21.30;10.83;;;;;;;1.90;80.33;98990.56;124522;1105;104232;-78
2021/03/13 08:26:35;;;;;;;17.53;11.67;;;;;;;1.98;80.18;98988.73;124492;1109;104284;-78
2021/03/13 08:29:05;;;;;;;17.80;10.73;;;;;;;2.12;80.73;98997.02;124689;1105;104141;-79
2021/03/13 08:31:38;;;;;;;17.37;10.30;;;;;;;2.22;80.87;98993.42;124589;1109;104101;-78
2021/03/13 08:34:05;;;;;;;13.80;8.83;;;;;;;2.36;80.35;99000.89;124576;1109;104217;-78
2021/03/13 08:36:46;;;;;;;17.07;9.75;;;;;;;2.45;79.90;98986.98;124763;1105;104208;-78
2021/03/13 08:39:21;;;;;;;13.03;8.83;;;;;;;2.59;80.05;98983.27;124606;1109;104386;-79
2021/03/13 08:41:51;;;;;;;15.97;9.10;;;;;;;2.78;79.64;98982.89;124579;1109;104166;-79
2021/03/13 08:44:30;;;;;;;13.90;8.33;;;;;;;3.64;79.54;98962.88;124510;1109;104287;-79
2021/03/13 08:46:58;;;;;;;17.37;7.80;;;;;;;5.15;77.45;98950.92;124541;1106;104168;-79
2021/03/13 08:49:27;;;;;;;12.33;7.50;;;;;;;6.59;73.89;98952.12;124566;1106;104278;-79
2021/03/13 08:52:07;;;;;;;12.23;7.00;;;;;;;7.86;71.94;98953.17;124727;1105;104197;-80
2021/03/13 08:54:39;;;;;;;10.47;6.30;;;;;;;9.01;68.88;98936.01;124749;1105;102237;-79
2021/03/13 08:57:13;;;;;;;10.63;6.30;;;;;;;9.95;67.74;98942.73;124753;1105;104133;-79
2021/03/13 08:59:53;;;;;;;9.63;5.93;;;;;;;10.80;64.97;98933.09;124632;1109;104156;-80
2021/03/13 09:02:25;;;;;;;10.63;5.90;;;;;;;11.72;62.24;98914.90;124525;1106;103912;-79
2021/03/13 09:04:55;;;;;;;9.33;5.80;;;;;;;12.44;62.32;98911.49;124531;1105;104027;-80
2021/03/13 09:07:23;;;;;;;8.97;5.80;;;;;;;13.25;62.22;98919.52;124740;1109;104127;-85
2021/03/13 09:09:54;;;;;;;8.30;5.10;;;;;;;14.02;61.63;98920.59;124705;1106;104178;-80
2021/03/13 09:12:23;;;;;;;7.20;4.73;;;;;;;14.50;57.62;98912.00;124561;1109;104258;-78
2021/03/13 09:14:56;;;;;;;7.60;5.20;;;;;;;14.05;56.98;98902.02;124717;1105;104162;-77
2021/03/13 09:17:26;;;;;;;8.53;5.00;;;;;;;13.51;54.93;98909.99;124541;1105;104284;-77
2021/03/13 09:19:55;;;;;;;7.07;4.60;;;;;;;12.94;56.79;98910.14;124618;1105;104176;-78
2021/03/13 09:22:26;;;;;;;7.57;4.90;;;;;;;12.71;54.43;98907.16;124562;1106;104191;-78
2021/03/13 09:25:05;;;;;;;8.37;5.00;;;;;;;12.31;58.04;98921.00;124601;1109;104246;-78
2021/03/13 09:27:37;;;;;;;9.20;4.73;;;;;;;12.29;56.35;98908.03;124912;1106;103446;-79
2021/03/13 09:30:22;;;;;;;7.87;4.40;;;;;;;11.82;57.44;98921.28;124561;1105;104714;-78
2021/03/13 09:32:51;;;;;;;6.77;4.30;;;;;;;11.10;54.81;98919.28;124519;1108;104104;-78
2021/03/13 09:35:24;;;;;;;7.90;4.60;;;;;;;10.36;56.70;98921.55;124730;1105;104217;-78
2021/03/13 09:37:52;;;;;;;7.13;4.30;;;;;;;10.01;58.52;98931.99;124576;1105;104245;-77
2021/03/13 09:40:28;;;;;;;8.40;4.63;;;;;;;9.66;58.49;98928.54;124620;1105;104162;-79
2021/03/13 09:42:55;;;;;;;7.35;4.95;;;;;;;9.19;58.79;98943.86;124496;1105;104172;-79
2021/03/13 09:45:25;;;;;;;7.50;4.83;;;;;;;8.77;60.20;98924.96;124552;1109;104118;-79
2021/03/13 09:47:58;;;;;;;8.20;5.30;;;;;;;8.34;60.73;98920.86;124537;1109;104114;-79
2021/03/13 09:50:29;;;;;;;7.67;4.93;;;;;;;8.04;61.19;98922.16;124548;1109;103030;-79
2021/03/13 09:53:01;;;;;;;9.10;5.60;;;;;;;7.85;62.05;98920.34;124535;1109;102817;-79
2021/03/13 09:55:31;;;;;;;8.20;5.07;;;;;;;7.68;62.63;98909.81;124556;1105;102552;-80
2021/03/13 09:58:01;;;;;;;9.03;5.67;;;;;;;7.51;63.17;98910.51;124648;1105;104024;-80
2021/03/13 10:00:39;;;;;;;9.33;5.73;;;;;;;7.48;63.79;98907.20;124620;1105;104223;-79
2021/03/13 10:03:13;;;;;;;10.00;6.40;;;;;;;7.47;63.77;98905.52;124653;1106;104673;-80
2021/03/13 10:05:41;;;;;;;9.23;5.97;;;;;;;7.50;64.20;98905.39;124606;1109;104301;-81
2021/03/13 10:08:13;;;;;;;10.27;6.30;;;;;;;7.62;64.48;98919.62;124595;1109;104239;-80
2021/03/13 10:10:48;;;;;;;10.53;5.90;;;;;;;7.91;64.04;98905.44;124695;1105;104258;-80
2021/03/13 10:13:17;;;;;;;7.83;5.70;;;;;;;8.18;63.06;98904.23;124519;1108;104119;-78
2021/03/13 10:15:45;;;;;;;8.30;5.57;;;;;;;8.40;63.27;98923.18;124612;1109;104275;-79
2021/03/13 10:18:18;;;;;;;8.10;6.20;;;;;;;8.43;62.62;98912.64;124577;1109;104552;-79
2021/03/13 10:20:45;;;;;;;9.30;6.00;;;;;;;8.41;62.60;98911.03;124626;1105;104274;-80
2021/03/13 10:23:13;;;;;;;9.30;6.30;;;;;;;8.36;62.39;98903.45;124584;1109;104158;-79
2021/03/13 10:25:42;;;;;;;9.73;6.03;;;;;;;8.54;62.58;98916.53;124655;1106;104555;-79
2021/03/13 10:28:12;;;;;;;11.70;5.87;;;;;;;8.68;62.33;98911.56;124613;1105;104169;-80
2021/03/13 10:30:42;;;;;;;10.27;6.20;;;;;;;8.91;62.09;98906.13;124532;1106;104191;-79
2021/03/13 10:33:11;;;;;;;10.30;6.63;;;;;;;9.66;62.51;98900.75;124588;1106;104281;-79
2021/03/13 10:35:38;;;;;;;8.30;5.40;;;;;;;10.05;60.07;98891.83;124759;1105;104149;-79
2021/03/13 10:38:09;;;;;;;8.03;5.57;;;;;;;10.21;59.13;98887.55;124558;1108;104168;-79
2021/03/13 10:40:50;;;;;;;6.87;5.17;;;;;;;10.15;60.00;98898.27;124781;1105;104136;-79
2021/03/13 10:43:26;;;;;;;7.27;5.33;;;;;;;10.18;58.92;98890.28;124562;1109;104207;-80
2021/03/13 10:45:56;;;;;;;8.70;5.37;;;;;;;10.53;58.30;98900.66;124515;1109;104114;-79
2021/03/13 10:48:26;;;;;;;8.73;5.33;;;;;;;10.51;58.04;98877.28;124584;1109;103976;-79
2021/03/13 10:50:55;;;;;;;7.43;5.03;;;;;;;10.56;58.26;98884.84;124564;1106;104173;-80
2021/03/13 10:53:31;;;;;;;7.03;5.40;;;;;;;10.53;58.45;98870.21;124587;1105;101626;-80
2021/03/13 10:56:03;;;;;;;9.67;5.33;;;;;;;10.46;57.05;98899.31;124634;1105;104207;-80
2021/03/13 10:58:57;;;;;;;9.37;5.57;;;;;;;10.14;57.62;98883.56;124517;1105;105524;-80
2021/03/13 11:01:25;;;;;;;11.77;5.20;;;;;;;9.90;56.37;98870.05;124565;1105;104277;-80
2021/03/13 11:03:56;;;;;;;8.10;5.47;;;;;;;9.73;57.46;98897.86;124569;1109;104229;-80
2021/03/13 11:06:31;;;;;;;9.13;5.53;;;;;;;9.64;58.37;98886.97;124606;1109;104104;-79
2021/03/13 11:09:03;;;;;;;10.40;5.67;;;;;;;9.59;58.26;98888.97;124552;1109;104651;-80
2021/03/13 11:11:30;;;;;;;6.87;5.07;;;;;;;9.52;58.54;98898.01;124508;1106;104160;-79
2021/03/13 11:13:58;;;;;;;9.07;4.90;;;;;;;9.59;58.88;98881.16;124564;1105;104153;-80
2021/03/13 11:16:25;;;;;;;8.20;4.77;;;;;;;9.55;59.12;98881.39;124863;1105;104088;-80
2021/03/13 11:18:54;;;;;;;8.63;4.87;;;;;;;9.56;58.75;98867.46;124592;1109;104181;-81
2021/03/13 11:21:23;;;;;;;8.67;5.53;;;;;;;9.59;58.48;98875.95;124571;1106;103011;-81
2021/03/13 11:23:51;;;;;;;8.05;5.10;;;;;;;9.55;57.97;98870.98;124689;1109;104364;-81
2021/03/13 11:26:20;;;;;;;7.27;4.60;;;;;;;9.46;58.20;98876.62;124651;1106;104210;-81
2021/03/13 11:28:49;;;;;;;8.67;5.13;;;;;;;9.31;57.53;98873.02;124689;1106;102997;-81
2021/03/13 11:31:16;;;;;;;6.03;4.07;;;;;;;9.33;56.29;98872.02;124638;1105;104255;-81